sensor_id;sensor_type;location;lat;lon;timestamp;temperature;humidity
27671;DHT22;15077;49.704;9.908;2023-09-18T00:00:25;24.20;53.60
27671;DHT22;15077;49.704;9.908;2023-09-18T00:02:51;24.20;53.70
27671;DHT22;15077;49.704;9.908;2023-09-18T00:05:17;24.10;53.60
27671;DHT22;15077;49.704;9.908;2023-09-18T00:07:43;24.10;53.80
27671;DHT22;15077;49.704;9.908;2023-09-18T00:10:11;24.10;53.80
27671;DHT22;15077;49.704;9.908;2023-09-18T00:12:37;24.10;53.80
27671;DHT22;15077;49.704;9.908;2023-09-18T00:15:05;24.10;53.90
27671;DHT22;15077;49.704;9.908;2023-09-18T00:17:35;24.00;53.90
27671;DHT22;15077;49.704;9.908;2023-09-18T00:20:03;24.00;54.00
27671;DHT22;15077;49.704;9.908;2023-09-18T00:22:32;24.00;53.90
27671;DHT22;15077;49.704;9.908;2023-09-18T00:24:59;23.90;54.00
27671;DHT22;15077;49.704;9.908;2023-09-18T00:27:28;23.90;54.10
27671;DHT22;15077;49.704;9.908;2023-09-18T00:29:54;23.90;54.30
27671;DHT22;15077;49.704;9.908;2023-09-18T00:32:20;23.90;54.20
27671;DHT22;15077;49.704;9.908;2023-09-18T00:34:46;23.90;54.50
27671;DHT22;15077;49.704;9.908;2023-09-18T00:37:12;23.80;54.50
27671;DHT22;15077;49.704;9.908;2023-09-18T00:39:38;23.80;54.40
27671;DHT22;15077;49.704;9.908;2023-09-18T00:42:04;23.80;54.50
27671;DHT22;15077;49.704;9.908;2023-09-18T00:44:30;23.80;54.50
27671;DHT22;15077;49.704;9.908;2023-09-18T00:46:56;23.70;54.60
27671;DHT22;15077;49.704;9.908;2023-09-18T00:49:24;23.70;54.70
27671;DHT22;15077;49.704;9.908;2023-09-18T00:51:51;23.70;54.80
27671;DHT22;15077;49.704;9.908;2023-09-18T00:54:22;23.70;54.70
27671;DHT22;15077;49.704;9.908;2023-09-18T00:56:49;23.60;54.90
27671;DHT22;15077;49.704;9.908;2023-09-18T00:59:21;23.60;54.80
27671;DHT22;15077;49.704;9.908;2023-09-18T01:01:48;23.60;54.90
27671;DHT22;15077;49.704;9.908;2023-09-18T01:04:17;23.60;55.00
27671;DHT22;15077;49.704;9.908;2023-09-18T01:06:46;23.60;55.00
27671;DHT22;15077;49.704;9.908;2023-09-18T01:09:18;23.50;54.90
27671;DHT22;15077;49.704;9.908;2023-09-18T01:11:54;23.50;55.10
27671;DHT22;15077;49.704;9.908;2023-09-18T01:14:31;23.50;55.10
27671;DHT22;15077;49.704;9.908;2023-09-18T01:17:00;23.50;55.30
27671;DHT22;15077;49.704;9.908;2023-09-18T01:19:40;23.50;55.20
27671;DHT22;15077;49.704;9.908;2023-09-18T01:22:17;23.40;55.30
27671;DHT22;15077;49.704;9.908;2023-09-18T01:24:46;23.40;55.20
27671;DHT22;15077;49.704;9.908;2023-09-18T01:27:14;23.40;55.20
27671;DHT22;15077;49.704;9.908;2023-09-18T01:29:45;23.40;55.30
27671;DHT22;15077;49.704;9.908;2023-09-18T01:32:12;23.30;55.20
27671;DHT22;15077;49.704;9.908;2023-09-18T01:34:52;23.30;55.30
27671;DHT22;15077;49.704;9.908;2023-09-18T01:37:26;23.30;55.50
27671;DHT22;15077;49.704;9.908;2023-09-18T01:39:55;23.30;55.50
27671;DHT22;15077;49.704;9.908;2023-09-18T01:42:29;23.20;55.50
27671;DHT22;15077;49.704;9.908;2023-09-18T01:44:56;23.20;55.70
27671;DHT22;15077;49.704;9.908;2023-09-18T01:47:23;23.20;55.50
27671;DHT22;15077;49.704;9.908;2023-09-18T01:49:50;23.20;55.60
27671;DHT22;15077;49.704;9.908;2023-09-18T01:52:17;23.10;55.60
27671;DHT22;15077;49.704;9.908;2023-09-18T01:54:45;23.10;55.70
27671;DHT22;15077;49.704;9.908;2023-09-18T01:57:13;23.10;56.40
27671;DHT22;15077;49.704;9.908;2023-09-18T01:59:41;23.10;55.80
27671;DHT22;15077;49.704;9.908;2023-09-18T02:02:13;23.10;55.80
27671;DHT22;15077;49.704;9.908;2023-09-18T02:04:40;23.00;55.90
27671;DHT22;15077;49.704;9.908;2023-09-18T02:07:08;23.00;55.80
27671;DHT22;15077;49.704;9.908;2023-09-18T02:09:35;23.00;56.00
27671;DHT22;15077;49.704;9.908;2023-09-18T02:12:01;23.00;56.00
27671;DHT22;15077;49.704;9.908;2023-09-18T02:14:29;23.00;56.10
27671;DHT22;15077;49.704;9.908;2023-09-18T02:16:56;22.90;56.10
27671;DHT22;15077;49.704;9.908;2023-09-18T02:19:22;22.90;56.10
27671;DHT22;15077;49.704;9.908;2023-09-18T02:21:48;22.90;56.20
27671;DHT22;15077;49.704;9.908;2023-09-18T02:24:14;22.90;56.30
27671;DHT22;15077;49.704;9.908;2023-09-18T02:26:41;22.90;56.60
27671;DHT22;15077;49.704;9.908;2023-09-18T02:29:09;22.80;56.40
27671;DHT22;15077;49.704;9.908;2023-09-18T02:31:38;22.80;56.50
27671;DHT22;15077;49.704;9.908;2023-09-18T02:34:04;22.80;56.50
27671;DHT22;15077;49.704;9.908;2023-09-18T02:36:33;22.80;56.50
27671;DHT22;15077;49.704;9.908;2023-09-18T02:39:00;22.80;56.60
27671;DHT22;15077;49.704;9.908;2023-09-18T02:41:26;22.80;56.70
27671;DHT22;15077;49.704;9.908;2023-09-18T02:43:51;22.80;56.70
27671;DHT22;15077;49.704;9.908;2023-09-18T02:46:17;22.80;56.80
27671;DHT22;15077;49.704;9.908;2023-09-18T02:48:43;22.80;56.80
27671;DHT22;15077;49.704;9.908;2023-09-18T02:51:10;22.80;56.80
27671;DHT22;15077;49.704;9.908;2023-09-18T02:53:37;22.80;56.90
27671;DHT22;15077;49.704;9.908;2023-09-18T02:56:04;22.80;57.00
27671;DHT22;15077;49.704;9.908;2023-09-18T02:58:31;22.80;57.00
27671;DHT22;15077;49.704;9.908;2023-09-18T03:00:58;22.80;57.00
27671;DHT22;15077;49.704;9.908;2023-09-18T03:03:26;22.80;57.10
27671;DHT22;15077;49.704;9.908;2023-09-18T03:05:59;22.80;57.50
27671;DHT22;15077;49.704;9.908;2023-09-18T03:08:32;22.80;57.20
27671;DHT22;15077;49.704;9.908;2023-09-18T03:10:58;22.80;57.40
27671;DHT22;15077;49.704;9.908;2023-09-18T03:13:27;22.80;57.20
27671;DHT22;15077;49.704;9.908;2023-09-18T03:15:53;22.80;57.30
27671;DHT22;15077;49.704;9.908;2023-09-18T03:18:21;22.80;58.20
27671;DHT22;15077;49.704;9.908;2023-09-18T03:20:49;22.80;58.90
27671;DHT22;15077;49.704;9.908;2023-09-18T03:23:17;22.70;58.90
27671;DHT22;15077;49.704;9.908;2023-09-18T03:25:44;22.70;59.20
27671;DHT22;15077;49.704;9.908;2023-09-18T03:28:10;22.70;59.30
27671;DHT22;15077;49.704;9.908;2023-09-18T03:30:36;22.70;59.30
27671;DHT22;15077;49.704;9.908;2023-09-18T03:33:03;22.70;59.50
27671;DHT22;15077;49.704;9.908;2023-09-18T03:35:45;22.70;59.70
27671;DHT22;15077;49.704;9.908;2023-09-18T03:38:15;22.70;60.20
27671;DHT22;15077;49.704;9.908;2023-09-18T03:40:42;22.80;59.30
27671;DHT22;15077;49.704;9.908;2023-09-18T03:43:12;22.80;59.80
27671;DHT22;15077;49.704;9.908;2023-09-18T03:45:38;22.80;59.80
27671;DHT22;15077;49.704;9.908;2023-09-18T03:48:06;22.80;60.00
27671;DHT22;15077;49.704;9.908;2023-09-18T03:50:33;22.80;61.00
27671;DHT22;15077;49.704;9.908;2023-09-18T03:53:00;22.80;60.40
27671;DHT22;15077;49.704;9.908;2023-09-18T03:55:26;22.80;60.60
27671;DHT22;15077;49.704;9.908;2023-09-18T03:57:52;22.80;60.80
27671;DHT22;15077;49.704;9.908;2023-09-18T04:00:20;22.80;61.10
27671;DHT22;15077;49.704;9.908;2023-09-18T04:02:47;22.80;61.10
27671;DHT22;15077;49.704;9.908;2023-09-18T04:05:14;22.80;60.90
27671;DHT22;15077;49.704;9.908;2023-09-18T04:07:40;22.80;61.00
27671;DHT22;15077;49.704;9.908;2023-09-18T04:10:06;22.80;60.90
27671;DHT22;15077;49.704;9.908;2023-09-18T04:12:32;22.80;60.70
27671;DHT22;15077;49.704;9.908;2023-09-18T04:14:57;22.80;60.60
27671;DHT22;15077;49.704;9.908;2023-09-18T04:17:24;22.80;61.10
27671;DHT22;15077;49.704;9.908;2023-09-18T04:19:52;22.80;61.30
27671;DHT22;15077;49.704;9.908;2023-09-18T04:22:19;22.80;61.10
27671;DHT22;15077;49.704;9.908;2023-09-18T04:24:45;22.80;61.40
27671;DHT22;15077;49.704;9.908;2023-09-18T04:27:12;22.80;61.30
27671;DHT22;15077;49.704;9.908;2023-09-18T04:29:39;22.80;61.20
27671;DHT22;15077;49.704;9.908;2023-09-18T04:32:05;22.80;61.00
27671;DHT22;15077;49.704;9.908;2023-09-18T04:34:31;22.80;61.00
27671;DHT22;15077;49.704;9.908;2023-09-18T04:36:57;22.80;61.10
27671;DHT22;15077;49.704;9.908;2023-09-18T04:39:23;22.80;61.10
27671;DHT22;15077;49.704;9.908;2023-09-18T04:41:49;22.80;60.90
27671;DHT22;15077;49.704;9.908;2023-09-18T04:44:14;22.80;61.00
27671;DHT22;15077;49.704;9.908;2023-09-18T04:46:40;22.80;61.00
27671;DHT22;15077;49.704;9.908;2023-09-18T04:49:07;22.80;61.00
27671;DHT22;15077;49.704;9.908;2023-09-18T04:51:35;22.80;60.90
27671;DHT22;15077;49.704;9.908;2023-09-18T04:54:01;22.80;61.00
27671;DHT22;15077;49.704;9.908;2023-09-18T04:56:27;22.80;60.90
27671;DHT22;15077;49.704;9.908;2023-09-18T04:58:53;22.80;61.50
27671;DHT22;15077;49.704;9.908;2023-09-18T05:01:19;22.80;61.60
27671;DHT22;15077;49.704;9.908;2023-09-18T05:03:52;22.80;61.40
27671;DHT22;15077;49.704;9.908;2023-09-18T05:06:18;22.80;61.80
27671;DHT22;15077;49.704;9.908;2023-09-18T05:08:45;22.80;62.00
27671;DHT22;15077;49.704;9.908;2023-09-18T05:11:11;22.80;62.10
27671;DHT22;15077;49.704;9.908;2023-09-18T05:13:36;22.80;62.60
27671;DHT22;15077;49.704;9.908;2023-09-18T05:16:02;22.70;62.50
27671;DHT22;15077;49.704;9.908;2023-09-18T05:18:29;22.70;62.70
27671;DHT22;15077;49.704;9.908;2023-09-18T05:20:55;22.70;62.80
27671;DHT22;15077;49.704;9.908;2023-09-18T05:23:21;22.60;62.70
27671;DHT22;15077;49.704;9.908;2023-09-18T05:25:47;22.60;62.80
27671;DHT22;15077;49.704;9.908;2023-09-18T05:28:12;22.60;62.90
27671;DHT22;15077;49.704;9.908;2023-09-18T05:30:39;22.60;62.90
27671;DHT22;15077;49.704;9.908;2023-09-18T05:33:05;22.60;63.60
27671;DHT22;15077;49.704;9.908;2023-09-18T05:35:34;22.60;63.30
27671;DHT22;15077;49.704;9.908;2023-09-18T05:38:05;22.60;63.30
27671;DHT22;15077;49.704;9.908;2023-09-18T05:40:31;22.60;63.30
27671;DHT22;15077;49.704;9.908;2023-09-18T05:42:58;22.60;63.30
27671;DHT22;15077;49.704;9.908;2023-09-18T05:45:24;22.60;63.30
27671;DHT22;15077;49.704;9.908;2023-09-18T05:47:51;22.60;63.60
27671;DHT22;15077;49.704;9.908;2023-09-18T05:50:19;22.60;63.50
27671;DHT22;15077;49.704;9.908;2023-09-18T05:52:46;22.60;63.50
27671;DHT22;15077;49.704;9.908;2023-09-18T05:55:14;22.60;63.60
27671;DHT22;15077;49.704;9.908;2023-09-18T05:57:41;22.70;63.60
27671;DHT22;15077;49.704;9.908;2023-09-18T06:00:08;22.70;63.70
27671;DHT22;15077;49.704;9.908;2023-09-18T06:02:39;22.70;63.70
27671;DHT22;15077;49.704;9.908;2023-09-18T06:05:05;22.70;63.70
27671;DHT22;15077;49.704;9.908;2023-09-18T06:07:32;22.70;63.50
27671;DHT22;15077;49.704;9.908;2023-09-18T06:09:59;22.80;63.70
27671;DHT22;15077;49.704;9.908;2023-09-18T06:12:25;22.80;63.40
27671;DHT22;15077;49.704;9.908;2023-09-18T06:14:51;22.80;63.50
27671;DHT22;15077;49.704;9.908;2023-09-18T06:17:17;22.90;63.90
27671;DHT22;15077;49.704;9.908;2023-09-18T06:19:44;22.90;63.80
27671;DHT22;15077;49.704;9.908;2023-09-18T06:22:11;22.90;63.90
27671;DHT22;15077;49.704;9.908;2023-09-18T06:24:37;22.90;63.70
27671;DHT22;15077;49.704;9.908;2023-09-18T06:27:03;22.90;63.50
27671;DHT22;15077;49.704;9.908;2023-09-18T06:29:33;22.90;63.50
27671;DHT22;15077;49.704;9.908;2023-09-18T06:32:00;22.90;63.60
27671;DHT22;15077;49.704;9.908;2023-09-18T06:34:26;23.00;63.40
27671;DHT22;15077;49.704;9.908;2023-09-18T06:36:53;23.00;63.70
27671;DHT22;15077;49.704;9.908;2023-09-18T06:39:19;23.00;63.60
27671;DHT22;15077;49.704;9.908;2023-09-18T06:41:49;23.00;63.70
27671;DHT22;15077;49.704;9.908;2023-09-18T06:44:15;23.10;63.70
27671;DHT22;15077;49.704;9.908;2023-09-18T06:46:41;23.10;63.80
27671;DHT22;15077;49.704;9.908;2023-09-18T06:49:07;23.10;63.90
27671;DHT22;15077;49.704;9.908;2023-09-18T06:51:32;23.10;64.50
27671;DHT22;15077;49.704;9.908;2023-09-18T06:53:58;23.10;64.70
27671;DHT22;15077;49.704;9.908;2023-09-18T06:56:25;23.20;65.20
27671;DHT22;15077;49.704;9.908;2023-09-18T06:58:51;23.20;65.20
27671;DHT22;15077;49.704;9.908;2023-09-18T07:01:19;23.20;65.20
27671;DHT22;15077;49.704;9.908;2023-09-18T07:03:46;23.20;65.50
27671;DHT22;15077;49.704;9.908;2023-09-18T07:06:14;23.10;65.90
27671;DHT22;15077;49.704;9.908;2023-09-18T07:08:46;23.10;66.40
27671;DHT22;15077;49.704;9.908;2023-09-18T07:11:13;23.10;65.60
27671;DHT22;15077;49.704;9.908;2023-09-18T07:13:38;23.10;65.50
27671;DHT22;15077;49.704;9.908;2023-09-18T07:16:06;23.10;65.60
27671;DHT22;15077;49.704;9.908;2023-09-18T07:18:32;23.10;65.60
27671;DHT22;15077;49.704;9.908;2023-09-18T07:20:58;23.20;65.30
27671;DHT22;15077;49.704;9.908;2023-09-18T07:23:24;23.20;65.40
27671;DHT22;15077;49.704;9.908;2023-09-18T07:25:49;23.20;65.40
27671;DHT22;15077;49.704;9.908;2023-09-18T07:28:15;23.20;65.30
27671;DHT22;15077;49.704;9.908;2023-09-18T07:30:43;23.20;65.40
27671;DHT22;15077;49.704;9.908;2023-09-18T07:33:10;23.30;65.20
27671;DHT22;15077;49.704;9.908;2023-09-18T07:35:36;23.30;65.40
27671;DHT22;15077;49.704;9.908;2023-09-18T07:38:02;23.30;65.50
27671;DHT22;15077;49.704;9.908;2023-09-18T07:40:28;23.30;65.30
27671;DHT22;15077;49.704;9.908;2023-09-18T07:42:54;23.40;65.20
27671;DHT22;15077;49.704;9.908;2023-09-18T07:45:19;23.40;65.10
27671;DHT22;15077;49.704;9.908;2023-09-18T07:47:45;23.40;65.20
27671;DHT22;15077;49.704;9.908;2023-09-18T07:50:11;23.40;65.10
27671;DHT22;15077;49.704;9.908;2023-09-18T07:52:38;23.40;65.20
27671;DHT22;15077;49.704;9.908;2023-09-18T07:55:04;23.50;65.30
27671;DHT22;15077;49.704;9.908;2023-09-18T07:57:30;23.50;65.30
27671;DHT22;15077;49.704;9.908;2023-09-18T07:59:58;23.50;65.20
27671;DHT22;15077;49.704;9.908;2023-09-18T08:02:25;23.50;65.90
27671;DHT22;15077;49.704;9.908;2023-09-18T08:04:51;23.50;65.70
27671;DHT22;15077;49.704;9.908;2023-09-18T08:07:19;23.50;65.50
27671;DHT22;15077;49.704;9.908;2023-09-18T08:09:45;23.60;65.80
27671;DHT22;15077;49.704;9.908;2023-09-18T08:12:13;23.60;65.80
27671;DHT22;15077;49.704;9.908;2023-09-18T08:14:39;23.60;65.70
27671;DHT22;15077;49.704;9.908;2023-09-18T08:17:04;23.60;65.90
27671;DHT22;15077;49.704;9.908;2023-09-18T08:19:30;23.60;66.00
27671;DHT22;15077;49.704;9.908;2023-09-18T08:21:59;23.60;66.00
27671;DHT22;15077;49.704;9.908;2023-09-18T08:24:25;23.70;66.20
27671;DHT22;15077;49.704;9.908;2023-09-18T08:26:51;23.70;66.20
27671;DHT22;15077;49.704;9.908;2023-09-18T08:29:17;23.70;66.00
27671;DHT22;15077;49.704;9.908;2023-09-18T08:31:44;23.70;66.20
27671;DHT22;15077;49.704;9.908;2023-09-18T08:34:10;23.80;66.30
27671;DHT22;15077;49.704;9.908;2023-09-18T08:36:36;23.80;66.10
27671;DHT22;15077;49.704;9.908;2023-09-18T08:39:01;23.80;66.10
27671;DHT22;15077;49.704;9.908;2023-09-18T08:41:31;23.80;66.00
27671;DHT22;15077;49.704;9.908;2023-09-18T08:44:02;23.80;66.10
27671;DHT22;15077;49.704;9.908;2023-09-18T08:46:30;23.80;65.90
27671;DHT22;15077;49.704;9.908;2023-09-18T08:48:57;23.80;65.90
27671;DHT22;15077;49.704;9.908;2023-09-18T08:51:24;23.80;65.90
27671;DHT22;15077;49.704;9.908;2023-09-18T08:53:50;23.80;66.10
27671;DHT22;15077;49.704;9.908;2023-09-18T08:56:17;23.80;66.40
27671;DHT22;15077;49.704;9.908;2023-09-18T08:58:44;23.80;66.50
27671;DHT22;15077;49.704;9.908;2023-09-18T09:01:10;23.80;67.10
27671;DHT22;15077;49.704;9.908;2023-09-18T09:03:41;23.70;66.90
27671;DHT22;15077;49.704;9.908;2023-09-18T09:06:09;23.70;66.70
27671;DHT22;15077;49.704;9.908;2023-09-18T09:08:36;23.70;66.70
27671;DHT22;15077;49.704;9.908;2023-09-18T09:11:02;23.70;66.70
27671;DHT22;15077;49.704;9.908;2023-09-18T09:13:28;23.70;66.60
27671;DHT22;15077;49.704;9.908;2023-09-18T09:15:56;23.70;66.60
27671;DHT22;15077;49.704;9.908;2023-09-18T09:18:25;23.70;66.80
27671;DHT22;15077;49.704;9.908;2023-09-18T09:20:57;23.80;66.80
27671;DHT22;15077;49.704;9.908;2023-09-18T09:23:26;23.80;66.80
27671;DHT22;15077;49.704;9.908;2023-09-18T09:25:53;23.80;66.80
27671;DHT22;15077;49.704;9.908;2023-09-18T09:28:30;23.90;66.80
27671;DHT22;15077;49.704;9.908;2023-09-18T09:31:01;23.90;66.70
27671;DHT22;15077;49.704;9.908;2023-09-18T09:33:31;23.90;67.00
27671;DHT22;15077;49.704;9.908;2023-09-18T09:35:57;23.90;66.80
27671;DHT22;15077;49.704;9.908;2023-09-18T09:38:30;24.00;67.10
27671;DHT22;15077;49.704;9.908;2023-09-18T09:40:57;24.00;67.40
27671;DHT22;15077;49.704;9.908;2023-09-18T09:43:31;24.00;67.30
27671;DHT22;15077;49.704;9.908;2023-09-18T09:45:59;24.10;67.40
27671;DHT22;15077;49.704;9.908;2023-09-18T09:48:26;24.10;67.20
27671;DHT22;15077;49.704;9.908;2023-09-18T09:50:58;24.10;67.00
27671;DHT22;15077;49.704;9.908;2023-09-18T09:53:46;24.20;66.80
27671;DHT22;15077;49.704;9.908;2023-09-18T09:56:14;24.20;66.80
27671;DHT22;15077;49.704;9.908;2023-09-18T09:58:41;24.20;66.40
27671;DHT22;15077;49.704;9.908;2023-09-18T10:01:11;24.20;66.10
27671;DHT22;15077;49.704;9.908;2023-09-18T10:03:44;24.20;66.00
27671;DHT22;15077;49.704;9.908;2023-09-18T10:06:11;24.20;65.90
27671;DHT22;15077;49.704;9.908;2023-09-18T10:08:39;24.20;65.80
27671;DHT22;15077;49.704;9.908;2023-09-18T10:11:07;24.20;66.00
27671;DHT22;15077;49.704;9.908;2023-09-18T10:14:15;24.10;66.10
27671;DHT22;15077;49.704;9.908;2023-09-18T10:16:40;24.20;66.60
27671;DHT22;15077;49.704;9.908;2023-09-18T10:19:14;24.10;66.50
27671;DHT22;15077;49.704;9.908;2023-09-18T10:22:06;24.10;67.00
27671;DHT22;15077;49.704;9.908;2023-09-18T10:24:39;24.10;67.20
27671;DHT22;15077;49.704;9.908;2023-09-18T10:27:07;24.10;66.90
27671;DHT22;15077;49.704;9.908;2023-09-18T10:29:36;24.00;66.90
27671;DHT22;15077;49.704;9.908;2023-09-18T10:32:06;23.90;67.00
27671;DHT22;15077;49.704;9.908;2023-09-18T10:34:36;23.90;67.00
27671;DHT22;15077;49.704;9.908;2023-09-18T10:37:03;23.90;66.80
27671;DHT22;15077;49.704;9.908;2023-09-18T10:39:37;23.90;66.90
27671;DHT22;15077;49.704;9.908;2023-09-18T10:42:04;23.90;67.20
27671;DHT22;15077;49.704;9.908;2023-09-18T10:44:33;23.80;67.30
27671;DHT22;15077;49.704;9.908;2023-09-18T10:47:02;23.80;66.80
27671;DHT22;15077;49.704;9.908;2023-09-18T10:49:31;23.70;66.90
27671;DHT22;15077;49.704;9.908;2023-09-18T10:51:57;23.70;67.30
27671;DHT22;15077;49.704;9.908;2023-09-18T10:54:26;23.60;67.20
27671;DHT22;15077;49.704;9.908;2023-09-18T10:56:55;23.60;67.30
27671;DHT22;15077;49.704;9.908;2023-09-18T10:59:22;23.60;67.30
27671;DHT22;15077;49.704;9.908;2023-09-18T11:01:49;23.60;67.30
27671;DHT22;15077;49.704;9.908;2023-09-18T11:04:19;23.50;67.20
27671;DHT22;15077;49.704;9.908;2023-09-18T11:09:27;23.50;67.90
27671;DHT22;15077;49.704;9.908;2023-09-18T11:14:49;23.50;67.90
27671;DHT22;15077;49.704;9.908;2023-09-18T11:17:39;23.50;68.30
27671;DHT22;15077;49.704;9.908;2023-09-18T11:20:09;23.50;68.20
27671;DHT22;15077;49.704;9.908;2023-09-18T11:22:58;23.50;68.20
27671;DHT22;15077;49.704;9.908;2023-09-18T11:25:39;23.50;68.70
27671;DHT22;15077;49.704;9.908;2023-09-18T11:28:07;23.50;68.60
27671;DHT22;15077;49.704;9.908;2023-09-18T11:30:55;23.60;68.70
27671;DHT22;15077;49.704;9.908;2023-09-18T11:33:40;23.50;68.90
27671;DHT22;15077;49.704;9.908;2023-09-18T11:38:56;23.50;69.10
27671;DHT22;15077;49.704;9.908;2023-09-18T11:41:27;23.50;69.20
27671;DHT22;15077;49.704;9.908;2023-09-18T11:46:46;23.50;69.70
27671;DHT22;15077;49.704;9.908;2023-09-18T11:49:23;23.40;69.60
27671;DHT22;15077;49.704;9.908;2023-09-18T11:51:57;23.40;69.70
27671;DHT22;15077;49.704;9.908;2023-09-18T11:54:24;23.40;69.50
27671;DHT22;15077;49.704;9.908;2023-09-18T11:56:50;23.50;69.60
27671;DHT22;15077;49.704;9.908;2023-09-18T11:59:16;23.50;69.70
27671;DHT22;15077;49.704;9.908;2023-09-18T12:01:53;23.50;69.60
27671;DHT22;15077;49.704;9.908;2023-09-18T12:04:27;23.50;69.70
27671;DHT22;15077;49.704;9.908;2023-09-18T12:06:54;23.50;69.80
27671;DHT22;15077;49.704;9.908;2023-09-18T12:09:19;23.50;69.70
27671;DHT22;15077;49.704;9.908;2023-09-18T12:11:45;23.50;70.00
27671;DHT22;15077;49.704;9.908;2023-09-18T12:14:13;23.50;69.70
27671;DHT22;15077;49.704;9.908;2023-09-18T12:16:40;23.50;69.90
27671;DHT22;15077;49.704;9.908;2023-09-18T12:19:06;23.50;69.90
27671;DHT22;15077;49.704;9.908;2023-09-18T12:21:32;23.50;69.80
27671;DHT22;15077;49.704;9.908;2023-09-18T12:24:05;23.50;69.90
27671;DHT22;15077;49.704;9.908;2023-09-18T12:26:31;23.50;69.80
27671;DHT22;15077;49.704;9.908;2023-09-18T12:28:59;23.50;69.80
27671;DHT22;15077;49.704;9.908;2023-09-18T12:31:25;23.50;69.60
27671;DHT22;15077;49.704;9.908;2023-09-18T12:33:51;23.50;69.50
27671;DHT22;15077;49.704;9.908;2023-09-18T12:36:20;23.50;69.40
27671;DHT22;15077;49.704;9.908;2023-09-18T12:38:56;23.50;69.50
27671;DHT22;15077;49.704;9.908;2023-09-18T12:41:25;23.60;69.60
27671;DHT22;15077;49.704;9.908;2023-09-18T12:43:51;23.60;69.40
27671;DHT22;15077;49.704;9.908;2023-09-18T12:46:19;23.60;69.30
27671;DHT22;15077;49.704;9.908;2023-09-18T12:48:47;23.60;69.40
27671;DHT22;15077;49.704;9.908;2023-09-18T12:51:13;23.70;69.40
27671;DHT22;15077;49.704;9.908;2023-09-18T12:53:40;23.60;69.40
27671;DHT22;15077;49.704;9.908;2023-09-18T12:56:13;23.70;69.20
27671;DHT22;15077;49.704;9.908;2023-09-18T12:58:41;23.70;69.40
27671;DHT22;15077;49.704;9.908;2023-09-18T13:01:08;23.70;69.30
27671;DHT22;15077;49.704;9.908;2023-09-18T13:03:46;23.70;69.20
27671;DHT22;15077;49.704;9.908;2023-09-18T13:06:18;23.80;69.20
27671;DHT22;15077;49.704;9.908;2023-09-18T13:08:47;23.80;69.20
27671;DHT22;15077;49.704;9.908;2023-09-18T13:11:14;23.80;69.00
27671;DHT22;15077;49.704;9.908;2023-09-18T13:13:42;23.80;68.90
27671;DHT22;15077;49.704;9.908;2023-09-18T13:16:09;23.80;68.70
27671;DHT22;15077;49.704;9.908;2023-09-18T13:18:36;23.80;68.80
27671;DHT22;15077;49.704;9.908;2023-09-18T13:21:11;23.80;68.70
27671;DHT22;15077;49.704;9.908;2023-09-18T13:23:39;23.80;68.50
27671;DHT22;15077;49.704;9.908;2023-09-18T13:26:06;23.80;68.20
27671;DHT22;15077;49.704;9.908;2023-09-18T13:28:36;23.90;68.10
27671;DHT22;15077;49.704;9.908;2023-09-18T13:31:06;23.90;68.10
27671;DHT22;15077;49.704;9.908;2023-09-18T13:33:33;23.80;67.80
27671;DHT22;15077;49.704;9.908;2023-09-18T13:36:03;23.80;67.90
27671;DHT22;15077;49.704;9.908;2023-09-18T13:38:30;23.90;67.90
27671;DHT22;15077;49.704;9.908;2023-09-18T13:40:56;23.90;67.70
27671;DHT22;15077;49.704;9.908;2023-09-18T13:43:22;23.90;67.50
27671;DHT22;15077;49.704;9.908;2023-09-18T13:45:49;23.90;67.50
27671;DHT22;15077;49.704;9.908;2023-09-18T13:48:18;23.80;67.20
27671;DHT22;15077;49.704;9.908;2023-09-18T13:50:44;23.90;66.70
27671;DHT22;15077;49.704;9.908;2023-09-18T13:53:11;23.80;66.90
27671;DHT22;15077;49.704;9.908;2023-09-18T13:55:37;23.80;66.80
27671;DHT22;15077;49.704;9.908;2023-09-18T13:58:03;23.80;66.70
27671;DHT22;15077;49.704;9.908;2023-09-18T14:00:29;23.70;66.80
27671;DHT22;15077;49.704;9.908;2023-09-18T14:02:56;23.70;67.00
27671;DHT22;15077;49.704;9.908;2023-09-18T14:05:22;23.70;67.00
27671;DHT22;15077;49.704;9.908;2023-09-18T14:07:48;23.70;67.00
27671;DHT22;15077;49.704;9.908;2023-09-18T14:10:14;23.80;67.00
27671;DHT22;15077;49.704;9.908;2023-09-18T14:12:41;23.80;66.90
27671;DHT22;15077;49.704;9.908;2023-09-18T14:15:08;23.80;66.90
27671;DHT22;15077;49.704;9.908;2023-09-18T14:17:35;23.80;66.70
27671;DHT22;15077;49.704;9.908;2023-09-18T14:20:04;23.80;66.50
27671;DHT22;15077;49.704;9.908;2023-09-18T14:22:36;23.80;66.80
27671;DHT22;15077;49.704;9.908;2023-09-18T14:25:03;23.80;67.00
27671;DHT22;15077;49.704;9.908;2023-09-18T14:27:32;23.90;67.10
27671;DHT22;15077;49.704;9.908;2023-09-18T14:30:00;23.90;66.90
27671;DHT22;15077;49.704;9.908;2023-09-18T14:32:29;23.90;66.70
27671;DHT22;15077;49.704;9.908;2023-09-18T14:34:55;24.00;66.40
27671;DHT22;15077;49.704;9.908;2023-09-18T14:37:21;24.00;66.10
27671;DHT22;15077;49.704;9.908;2023-09-18T14:39:46;24.10;66.30
27671;DHT22;15077;49.704;9.908;2023-09-18T14:42:12;24.10;66.10
27671;DHT22;15077;49.704;9.908;2023-09-18T14:44:38;24.10;65.80
27671;DHT22;15077;49.704;9.908;2023-09-18T14:47:13;24.10;65.50
27671;DHT22;15077;49.704;9.908;2023-09-18T14:49:39;24.10;65.50
27671;DHT22;15077;49.704;9.908;2023-09-18T14:52:05;24.10;65.50
27671;DHT22;15077;49.704;9.908;2023-09-18T14:54:31;24.10;65.30
27671;DHT22;15077;49.704;9.908;2023-09-18T14:56:57;24.10;66.10
27671;DHT22;15077;49.704;9.908;2023-09-18T14:59:23;24.20;65.70
27671;DHT22;15077;49.704;9.908;2023-09-18T15:01:49;24.20;65.60
27671;DHT22;15077;49.704;9.908;2023-09-18T15:04:14;24.30;65.90
27671;DHT22;15077;49.704;9.908;2023-09-18T15:06:40;24.40;65.20
27671;DHT22;15077;49.704;9.908;2023-09-18T15:09:06;24.40;64.70
27671;DHT22;15077;49.704;9.908;2023-09-18T15:11:33;24.50;65.10
27671;DHT22;15077;49.704;9.908;2023-09-18T15:14:01;24.50;64.50
27671;DHT22;15077;49.704;9.908;2023-09-18T15:16:27;24.60;63.80
27671;DHT22;15077;49.704;9.908;2023-09-18T15:18:56;24.60;63.90
27671;DHT22;15077;49.704;9.908;2023-09-18T15:21:25;24.60;63.10
27671;DHT22;15077;49.704;9.908;2023-09-18T15:23:51;24.60;63.60
27671;DHT22;15077;49.704;9.908;2023-09-18T15:26:17;24.70;63.80
27671;DHT22;15077;49.704;9.908;2023-09-18T15:28:43;24.70;63.40
27671;DHT22;15077;49.704;9.908;2023-09-18T15:31:08;24.70;63.40
27671;DHT22;15077;49.704;9.908;2023-09-18T15:33:34;24.70;63.40
27671;DHT22;15077;49.704;9.908;2023-09-18T15:36:00;24.70;63.70
27671;DHT22;15077;49.704;9.908;2023-09-18T15:38:26;24.70;63.60
27671;DHT22;15077;49.704;9.908;2023-09-18T15:40:52;24.80;63.70
27671;DHT22;15077;49.704;9.908;2023-09-18T15:43:18;24.90;63.40
27671;DHT22;15077;49.704;9.908;2023-09-18T15:45:44;24.90;63.40